createdAt,value
2022-10-13T00:00:05.908Z,101775.16
2022-10-13T00:02:32.280Z,101755.84
2022-10-13T00:04:58.605Z,101757.44
2022-10-13T00:07:25.092Z,101752.34
2022-10-13T00:09:51.491Z,101754.75
2022-10-13T00:12:18.207Z,101757.16
2022-10-13T00:14:44.826Z,101758.16
2022-10-13T00:17:11.309Z,101757.78
2022-10-13T00:19:37.650Z,101748.19
2022-10-13T00:22:04.185Z,101750.16
2022-10-13T00:24:30.603Z,101756.69
2022-10-13T00:26:59.787Z,101752.31
2022-10-13T00:29:26.126Z,101766.28
2022-10-13T00:31:52.559Z,101752.19
2022-10-13T00:34:18.953Z,101759.22
2022-10-13T00:36:45.337Z,101750.25
2022-10-13T00:39:12.499Z,101741.75
2022-10-13T00:41:38.970Z,101745.88
2022-10-13T00:44:29.478Z,101738.94
2022-10-13T00:46:56.102Z,101742.59
2022-10-13T00:49:22.491Z,101732.25
2022-10-13T00:51:50.152Z,101732.16
2022-10-13T00:54:22.096Z,101734.34
2022-10-13T00:56:51.233Z,101739.69
2022-10-13T00:59:26.554Z,101739.25
2022-10-13T01:01:53.340Z,101723.72
2022-10-13T01:04:23.186Z,101727.34
2022-10-13T01:06:50.202Z,101735.13
2022-10-13T01:09:16.621Z,101731.09
2022-10-13T01:12:26.244Z,101726.50
2022-10-13T01:15:29.507Z,101736.47
2022-10-13T01:18:25.129Z,101737.53
2022-10-13T01:21:00.286Z,101733.19
2022-10-13T01:23:44.562Z,101734.59
2022-10-13T01:26:56.847Z,101739.09
2022-10-13T01:29:44.725Z,101730.31
2022-10-13T01:32:35.194Z,101735.47
2022-10-13T01:35:07.332Z,101719.88
2022-10-13T01:37:42.503Z,101725.81
2022-10-13T01:40:40.275Z,101726.38
2022-10-13T01:43:15.904Z,101723.78
2022-10-13T01:45:59.046Z,101709.78
2022-10-13T01:48:27.968Z,101698.44
2022-10-13T01:50:57.481Z,101713.78
2022-10-13T01:53:24.450Z,101705.00
2022-10-13T01:55:56.869Z,101696.09
2022-10-13T01:58:27.353Z,101714.00
2022-10-13T02:01:04.298Z,101713.72
2022-10-13T02:03:51.018Z,101706.25
2022-10-13T02:06:24.869Z,101702.66
2022-10-13T02:09:01.479Z,101697.78
2022-10-13T02:11:28.565Z,101705.00
2022-10-13T02:14:12.767Z,101706.94
2022-10-13T02:16:43.272Z,101690.75
2022-10-13T02:19:12.720Z,101689.91
2022-10-13T02:21:39.514Z,101679.09
2022-10-13T02:24:07.262Z,101685.25
2022-10-13T02:26:35.220Z,101680.34
2022-10-13T02:29:11.648Z,101668.84
2022-10-13T02:31:39.488Z,101683.75
2022-10-13T02:34:06.346Z,101682.06
2022-10-13T02:36:32.946Z,101682.06
2022-10-13T02:38:59.484Z,101686.09
2022-10-13T02:41:26.276Z,101660.66
2022-10-13T02:43:52.683Z,101667.78
2022-10-13T02:46:19.115Z,101659.06
2022-10-13T02:48:45.463Z,101655.00
2022-10-13T02:51:12.072Z,101659.91
2022-10-13T02:53:38.441Z,101658.38
2022-10-13T02:56:05.001Z,101663.66
2022-10-13T02:58:31.337Z,101664.94
2022-10-13T03:01:08.467Z,101659.91
2022-10-13T03:03:35.823Z,101657.44
2022-10-13T03:06:02.761Z,101653.22
2022-10-13T03:08:29.387Z,101650.84
2022-10-13T03:10:56.039Z,101653.06
2022-10-13T03:13:22.539Z,101663.00
2022-10-13T03:15:49.075Z,101646.91
2022-10-13T03:18:15.601Z,101644.31
2022-10-13T03:20:44.846Z,101644.06
2022-10-13T03:23:11.291Z,101636.81
2022-10-13T03:25:38.259Z,101647.75
2022-10-13T03:28:04.770Z,101641.56
2022-10-13T03:30:31.236Z,101647.53
2022-10-13T03:32:57.616Z,101634.03
2022-10-13T03:35:24.061Z,101641.94
2022-10-13T03:37:50.425Z,101635.75
2022-10-13T03:40:17.195Z,101638.31
2022-10-13T03:42:43.604Z,101624.72
2022-10-13T03:45:10.684Z,101643.41
2022-10-13T03:47:37.476Z,101637.34
2022-10-13T03:50:05.565Z,101640.63
2022-10-13T03:52:31.993Z,101643.28
2022-10-13T03:54:58.568Z,101645.84
2022-10-13T03:57:24.997Z,101641.34
2022-10-13T03:59:51.704Z,101640.41
2022-10-13T04:02:18.380Z,101636.88
2022-10-13T04:04:44.995Z,101634.84
2022-10-13T04:07:11.330Z,101645.63
2022-10-13T04:09:37.680Z,101631.78
2022-10-13T04:12:05.337Z,101630.38
2022-10-13T04:14:31.689Z,101636.44
2022-10-13T04:16:58.247Z,101627.47
2022-10-13T04:19:25.186Z,101632.06
2022-10-13T04:21:51.651Z,101631.22
2022-10-13T04:24:18.237Z,101636.13
2022-10-13T04:26:46.204Z,101635.03
2022-10-13T04:29:12.901Z,101633.91
2022-10-13T04:31:40.175Z,101620.84
2022-10-13T04:34:07.718Z,101627.50
2022-10-13T04:36:34.262Z,101620.47
2022-10-13T04:39:00.651Z,101618.03
2022-10-13T04:41:27.352Z,101626.03
2022-10-13T04:43:54.388Z,101619.63
2022-10-13T04:46:23.758Z,101624.09
2022-10-13T04:48:50.319Z,101606.91
2022-10-13T04:51:19.964Z,101615.75
2022-10-13T04:53:46.851Z,101625.19
2022-10-13T04:56:16.022Z,101610.19
2022-10-13T04:58:44.165Z,101611.28
2022-10-13T05:01:23.639Z,101605.94
2022-10-13T05:03:59.673Z,101597.09
2022-10-13T05:06:28.718Z,101604.44
2022-10-13T05:08:56.143Z,101583.94
2022-10-13T05:11:23.115Z,101591.22
2022-10-13T05:13:49.743Z,101607.34
2022-10-13T05:16:18.498Z,101600.31
2022-10-13T05:18:45.419Z,101602.84
2022-10-13T05:21:13.579Z,101603.69
2022-10-13T05:23:40.425Z,101589.63
2022-10-13T05:26:10.039Z,101584.91
2022-10-13T05:28:36.459Z,101581.28
2022-10-13T05:31:15.623Z,101564.91
2022-10-13T05:33:42.791Z,101585.66
2022-10-13T05:36:12.657Z,101591.25
2022-10-13T05:38:39.559Z,101583.84
2022-10-13T05:41:07.994Z,101580.22
2022-10-13T05:43:34.654Z,101580.34
2022-10-13T05:46:01.858Z,101572.59
2022-10-13T05:48:28.669Z,101559.72
2022-10-13T05:50:57.499Z,101559.47
2022-10-13T05:53:27.755Z,101560.19
2022-10-13T05:55:55.427Z,101558.09
2022-10-13T05:58:22.617Z,101557.03
2022-10-13T06:00:49.374Z,101565.06
2022-10-13T06:03:19.119Z,101537.28
2022-10-13T06:05:47.483Z,101554.22
2022-10-13T06:08:16.039Z,101549.75
2022-10-13T06:10:43.372Z,101543.44
2022-10-13T06:13:09.907Z,101545.97
2022-10-13T06:15:36.312Z,101560.06
2022-10-13T06:18:06.902Z,101556.53
2022-10-13T06:20:33.271Z,101551.69
2022-10-13T06:22:59.660Z,101555.06
2022-10-13T06:25:26.096Z,101542.09
2022-10-13T06:27:52.513Z,101543.06
2022-10-13T06:30:18.876Z,101537.84
2022-10-13T06:32:45.323Z,101562.31
2022-10-13T06:35:11.833Z,101552.38
2022-10-13T06:37:38.241Z,101554.06
2022-10-13T06:40:05.515Z,101553.09
2022-10-13T06:42:34.828Z,101555.97
2022-10-13T06:45:01.276Z,101559.00
2022-10-13T06:47:27.761Z,101541.91
2022-10-13T06:49:54.360Z,101548.06
2022-10-13T06:52:21.158Z,101552.50
2022-10-13T06:54:48.012Z,101554.53
2022-10-13T06:57:14.643Z,101547.97
2022-10-13T06:59:41.072Z,101555.91
2022-10-13T07:02:09.272Z,101547.28
2022-10-13T07:04:35.620Z,101538.06
2022-10-13T07:07:01.991Z,101548.66
2022-10-13T07:09:28.577Z,101540.50
2022-10-13T07:11:55.107Z,101525.47
2022-10-13T07:14:21.684Z,101535.59
2022-10-13T07:16:48.874Z,101542.00
2022-10-13T07:19:15.258Z,101542.16
2022-10-13T07:21:41.986Z,101553.75
2022-10-13T07:24:14.686Z,101561.16
2022-10-13T07:26:41.221Z,101539.78
2022-10-13T07:29:08.012Z,101522.78
2022-10-13T07:31:34.427Z,101537.59
2022-10-13T07:34:01.137Z,101549.16
2022-10-13T07:36:27.643Z,101534.81
2022-10-13T07:38:54.021Z,101515.94
2022-10-13T07:41:20.529Z,101532.72
2022-10-13T07:43:46.960Z,101531.19
2022-10-13T07:46:13.813Z,101539.38
2022-10-13T07:48:40.336Z,101532.63
2022-10-13T07:51:09.331Z,101528.66
2022-10-13T07:53:36.024Z,101523.00
2022-10-13T07:56:05.304Z,101534.56
2022-10-13T07:58:31.781Z,101533.84
2022-10-13T08:01:00.244Z,101542.56
2022-10-13T08:03:27.823Z,101531.56
2022-10-13T08:05:54.361Z,101524.88
2022-10-13T08:08:21.701Z,101529.34
2022-10-13T08:10:48.424Z,101525.09
2022-10-13T08:13:14.810Z,101513.19
2022-10-13T08:15:42.959Z,101520.19
2022-10-13T08:18:14.438Z,101522.66
2022-10-13T08:20:43.876Z,101526.88
2022-10-13T08:23:11.258Z,101525.88
2022-10-13T08:25:42.217Z,101522.13
2022-10-13T08:28:24.128Z,101520.78
2022-10-13T08:30:51.831Z,101514.81
2022-10-13T08:33:18.323Z,101509.78
2022-10-13T08:35:45.008Z,101504.50
2022-10-13T08:38:11.697Z,101510.94
2022-10-13T08:40:39.190Z,101506.25
2022-10-13T08:43:12.741Z,101515.63
2022-10-13T08:45:41.743Z,101510.09
2022-10-13T08:48:18.145Z,101517.59
2022-10-13T08:50:47.571Z,101516.59
2022-10-13T08:53:22.404Z,101512.31
2022-10-13T08:55:52.088Z,101525.81
2022-10-13T08:58:31.270Z,101506.22
2022-10-13T09:01:06.349Z,101524.56
2022-10-13T09:03:44.042Z,101524.25
2022-10-13T09:06:15.419Z,101525.94
2022-10-13T09:09:00.111Z,101526.19
2022-10-13T09:11:33.844Z,101514.25
2022-10-13T09:14:03.539Z,101503.69
2022-10-13T09:16:41.312Z,101491.28
2022-10-13T09:19:15.784Z,101498.84
2022-10-13T09:21:42.425Z,101503.56
2022-10-13T09:24:14.164Z,101508.78
2022-10-13T09:26:41.281Z,101504.78
2022-10-13T09:29:16.204Z,101502.47
2022-10-13T09:31:42.634Z,101510.53
2022-10-13T09:34:20.989Z,101510.78
2022-10-13T09:37:00.609Z,101498.31
2022-10-13T09:39:27.772Z,101503.56
2022-10-13T09:42:19.479Z,101493.66
2022-10-13T09:44:47.019Z,101507.69
2022-10-13T09:47:26.533Z,101497.06
2022-10-13T09:50:07.375Z,101511.81
2022-10-13T09:52:34.646Z,101504.03
2022-10-13T09:55:01.035Z,101491.28
2022-10-13T09:57:46.342Z,101482.81
2022-10-13T10:00:19.597Z,101488.56
2022-10-13T10:02:51.335Z,101479.66
2022-10-13T10:05:39.402Z,101481.66
2022-10-13T10:09:03.815Z,101483.66
2022-10-13T10:11:38.282Z,101479.41
2022-10-13T10:14:36.116Z,101471.81
2022-10-13T10:17:28.590Z,101473.34
2022-10-13T10:20:01.124Z,101467.75
2022-10-13T10:22:49.291Z,101472.97
2022-10-13T10:25:29.907Z,101465.38
2022-10-13T10:28:14.140Z,101466.91
2022-10-13T10:30:48.680Z,101468.06
2022-10-13T10:33:21.745Z,101472.63
2022-10-13T10:36:27.522Z,101474.81
2022-10-13T10:39:15.131Z,101466.75
2022-10-13T10:42:02.882Z,101451.06
2022-10-13T10:44:51.482Z,101456.97
2022-10-13T10:47:30.189Z,101452.44
2022-10-13T10:50:06.382Z,101436.44
2022-10-13T10:53:04.884Z,101445.72
2022-10-13T10:55:54.265Z,101437.66
2022-10-13T10:58:37.684Z,101432.63
2022-10-13T11:01:40.270Z,101425.25
2022-10-13T11:04:33.228Z,101422.06
2022-10-13T11:06:59.904Z,101423.75
2022-10-13T11:09:41.337Z,101419.81
2022-10-13T11:12:22.775Z,101409.31
2022-10-13T11:14:55.244Z,101405.25
2022-10-13T11:17:33.411Z,101393.41
2022-10-13T11:20:00.570Z,101403.59
2022-10-13T11:22:28.821Z,101410.22
2022-10-13T11:24:58.041Z,101401.50
2022-10-13T11:27:35.021Z,101398.25
2022-10-13T11:30:03.095Z,101400.34
2022-10-13T11:32:35.276Z,101393.34
2022-10-13T11:35:04.602Z,101393.50
2022-10-13T11:38:05.879Z,101394.41
2022-10-13T11:40:35.144Z,101402.06
2022-10-13T11:43:17.124Z,101400.91
2022-10-13T11:46:19.741Z,101406.94
2022-10-13T11:49:23.861Z,101409.00
2022-10-13T11:52:05.521Z,101411.84
2022-10-13T11:54:47.840Z,101403.56
2022-10-13T11:57:26.152Z,101393.00
2022-10-13T11:59:56.161Z,101391.63
2022-10-13T12:02:26.012Z,101392.66
2022-10-13T12:05:20.552Z,101395.06
2022-10-13T12:07:49.063Z,101401.31
2022-10-13T12:10:34.642Z,101392.34
2022-10-13T12:13:02.639Z,101396.81
2022-10-13T12:15:35.624Z,101375.00
2022-10-13T12:18:03.465Z,101377.56
2022-10-13T12:20:32.168Z,101371.22
2022-10-13T12:22:58.716Z,101364.50
2022-10-13T12:25:29.047Z,101350.59
2022-10-13T12:27:59.195Z,101365.41
2022-10-13T12:30:27.595Z,101359.97
2022-10-13T12:32:57.385Z,101364.50
2022-10-13T12:35:28.106Z,101361.44
2022-10-13T12:37:57.001Z,101354.53
2022-10-13T12:40:25.073Z,101369.81
2022-10-13T12:42:51.967Z,101365.00
2022-10-13T12:45:24.519Z,101361.22
2022-10-13T12:47:53.794Z,101363.09
2022-10-13T12:50:32.513Z,101351.00
2022-10-13T12:53:09.152Z,101359.38
2022-10-13T12:55:55.608Z,101353.78
2022-10-13T12:58:35.968Z,101353.69
2022-10-13T13:01:14.697Z,101354.53
2022-10-13T13:03:43.204Z,101360.50
2022-10-13T13:06:15.384Z,101353.22
2022-10-13T13:08:43.427Z,101355.81
2022-10-13T13:11:39.429Z,101350.31
2022-10-13T13:14:45.087Z,101356.94
2022-10-13T13:17:17.516Z,101355.34
2022-10-13T13:19:55.732Z,101343.94
2022-10-13T13:22:22.519Z,101349.66
2022-10-13T13:24:52.589Z,101353.19
2022-10-13T13:27:21.981Z,101344.41
2022-10-13T13:29:48.850Z,101336.41
2022-10-13T13:32:20.263Z,101350.19
2022-10-13T13:34:47.281Z,101346.19
2022-10-13T13:37:22.832Z,101347.84
2022-10-13T13:39:49.521Z,101344.31
2022-10-13T13:42:16.176Z,101357.84
2022-10-13T13:44:42.579Z,101347.44
2022-10-13T13:47:21.873Z,101354.31
2022-10-13T13:49:50.712Z,101355.69
2022-10-13T13:52:18.329Z,101353.69
2022-10-13T13:54:45.150Z,101356.13
2022-10-13T13:57:13.796Z,101347.00
2022-10-13T13:59:40.493Z,101350.38
2022-10-13T14:02:11.965Z,101340.19
2022-10-13T14:04:38.444Z,101344.75
2022-10-13T14:07:04.856Z,101340.84
2022-10-13T14:09:31.361Z,101348.09
2022-10-13T14:11:57.799Z,101336.31
2022-10-13T14:14:24.373Z,101333.81
2022-10-13T14:16:50.872Z,101331.19
2022-10-13T14:19:17.280Z,101325.47
2022-10-13T14:21:45.913Z,101309.13
2022-10-13T14:24:15.174Z,101332.84
2022-10-13T14:26:41.611Z,101351.59
2022-10-13T14:29:08.296Z,101337.53
2022-10-13T14:31:35.182Z,101328.13
2022-10-13T14:34:01.537Z,101322.72
2022-10-13T14:36:28.251Z,101332.13
2022-10-13T14:38:55.067Z,101313.28
2022-10-13T14:41:22.319Z,101327.19
2022-10-13T14:43:55.308Z,101319.28
2022-10-13T14:46:22.416Z,101332.91
2022-10-13T14:48:49.457Z,101319.28
2022-10-13T14:51:16.508Z,101320.97
2022-10-13T14:53:45.148Z,101332.72
2022-10-13T14:56:23.395Z,101326.31
2022-10-13T14:58:52.071Z,101333.75
2022-10-13T15:01:19.318Z,101321.44
2022-10-13T15:03:46.303Z,101316.41
2022-10-13T15:06:19.009Z,101316.53
2022-10-13T15:08:46.150Z,101317.59
2022-10-13T15:11:13.625Z,101318.38
2022-10-13T15:13:41.049Z,101317.53
2022-10-13T15:16:13.408Z,101303.91
2022-10-13T15:18:39.897Z,101298.00
2022-10-13T15:21:06.270Z,101312.69
2022-10-13T15:23:32.673Z,101313.88
2022-10-13T15:26:01.624Z,101308.16
2022-10-13T15:28:30.458Z,101307.13
2022-10-13T15:30:56.952Z,101300.44
2022-10-13T15:33:23.358Z,101289.19
2022-10-13T15:35:50.824Z,101297.97
2022-10-13T15:38:18.992Z,101300.00
2022-10-13T15:40:46.165Z,101298.88
2022-10-13T15:43:12.895Z,101308.94
2022-10-13T15:45:40.152Z,101316.22
2022-10-13T15:48:07.908Z,101313.03
2022-10-13T15:50:38.353Z,101314.59
2022-10-13T15:53:04.819Z,101315.44
2022-10-13T15:55:31.907Z,101313.44
2022-10-13T15:57:58.362Z,101314.84
2022-10-13T16:00:24.951Z,101305.56
2022-10-13T16:02:52.031Z,101315.88
2022-10-13T16:05:19.237Z,101295.38
2022-10-13T16:07:45.794Z,101305.50
2022-10-13T16:10:13.987Z,101301.28
2022-10-13T16:12:45.438Z,101317.84
2022-10-13T16:15:14.990Z,101310.75
2022-10-13T16:17:41.757Z,101305.53
2022-10-13T16:20:09.055Z,101314.34
2022-10-13T16:22:35.500Z,101303.72
2022-10-13T16:25:02.047Z,101313.69
2022-10-13T16:27:30.918Z,101302.06
2022-10-13T16:29:57.343Z,101301.41
2022-10-13T16:32:25.743Z,101314.53
2022-10-13T16:34:52.185Z,101314.72
2022-10-13T16:37:19.155Z,101315.06
2022-10-13T16:39:51.241Z,101291.34
2022-10-13T16:42:18.249Z,101312.88
2022-10-13T16:44:47.750Z,101306.50
2022-10-13T16:47:18.217Z,101305.69
2022-10-13T16:49:45.088Z,101310.06
2022-10-13T16:52:11.484Z,101315.63
2022-10-13T16:54:37.996Z,101310.56
2022-10-13T16:57:04.627Z,101297.94
2022-10-13T16:59:31.055Z,101311.75
2022-10-13T17:01:59.163Z,101293.94
2022-10-13T17:04:25.902Z,101310.06
2022-10-13T17:06:52.292Z,101307.03
2022-10-13T17:09:18.961Z,101309.09
2022-10-13T17:11:45.425Z,101308.44
2022-10-13T17:14:11.901Z,101306.06
2022-10-13T17:16:38.383Z,101322.25
2022-10-13T17:19:04.995Z,101300.88
2022-10-13T17:21:31.428Z,101314.53
2022-10-13T17:23:57.944Z,101311.84
2022-10-13T17:26:24.397Z,101308.13
2022-10-13T17:28:51.164Z,101321.28
2022-10-13T17:31:20.761Z,101324.50
2022-10-13T17:33:48.341Z,101307.34
2022-10-13T17:36:16.381Z,101327.53
2022-10-13T17:38:44.026Z,101324.03
2022-10-13T17:41:11.167Z,101332.94
2022-10-13T17:43:38.763Z,101329.91
2022-10-13T17:46:36.935Z,101323.00
2022-10-13T17:49:03.651Z,101328.03
2022-10-13T17:51:30.056Z,101337.47
2022-10-13T17:53:58.735Z,101322.81
2022-10-13T17:56:25.530Z,101327.34
2022-10-13T17:58:52.600Z,101327.84
2022-10-13T18:01:21.089Z,101333.75
2022-10-13T18:03:50.581Z,101333.56
2022-10-13T18:06:18.469Z,101325.31
2022-10-13T18:08:44.938Z,101327.50
2022-10-13T18:11:14.998Z,101328.13
2022-10-13T18:13:42.391Z,101327.44
2022-10-13T18:16:22.973Z,101319.06
2022-10-13T18:18:50.678Z,101321.75
2022-10-13T18:21:19.843Z,101328.28
2022-10-13T18:23:46.545Z,101311.63
2022-10-13T18:26:16.277Z,101321.38
2022-10-13T18:28:44.535Z,101312.78
2022-10-13T18:31:13.898Z,101320.19
2022-10-13T18:33:41.683Z,101322.53
2022-10-13T18:36:28.978Z,101323.38
2022-10-13T18:39:00.598Z,101325.56
2022-10-13T18:41:26.995Z,101312.09
2022-10-13T18:43:55.121Z,101312.78
2022-10-13T18:46:21.621Z,101311.09
2022-10-13T18:48:48.051Z,101306.03
2022-10-13T18:51:15.833Z,101322.34
2022-10-13T18:53:44.164Z,101318.31
2022-10-13T18:56:22.526Z,101316.78
2022-10-13T18:58:59.175Z,101321.16
2022-10-13T19:01:27.935Z,101318.81
2022-10-13T19:03:54.882Z,101329.72
2022-10-13T19:06:26.599Z,101327.34
2022-10-13T19:09:07.169Z,101305.34
2022-10-13T19:11:34.573Z,101319.63
2022-10-13T19:14:02.204Z,101302.94
2022-10-13T19:16:30.678Z,101323.81
2022-10-13T19:18:57.243Z,101323.81
2022-10-13T19:21:23.770Z,101311.16
2022-10-13T19:23:50.501Z,101321.13
2022-10-13T19:26:26.437Z,101328.19
2022-10-13T19:28:55.024Z,101315.53
2022-10-13T19:31:23.377Z,101327.19
2022-10-13T19:33:50.585Z,101327.34
2022-10-13T19:36:33.021Z,101328.56
2022-10-13T19:39:00.197Z,101319.28
2022-10-13T19:41:31.535Z,101326.88
2022-10-13T19:43:58.928Z,101319.28
2022-10-13T19:46:26.581Z,101310.00
2022-10-13T19:48:53.019Z,101320.28
2022-10-13T19:51:19.579Z,101314.91
2022-10-13T19:53:46.333Z,101322.16
2022-10-13T19:56:22.031Z,101319.81
2022-10-13T19:58:48.621Z,101316.22
2022-10-13T20:01:15.053Z,101322.16
2022-10-13T20:03:41.725Z,101322.97
2022-10-13T20:06:09.249Z,101327.53
2022-10-13T20:08:35.616Z,101310.31
2022-10-13T20:11:09.541Z,101318.06
2022-10-13T20:13:36.726Z,101312.00
2022-10-13T20:16:08.111Z,101325.00
2022-10-13T20:18:35.672Z,101327.84
2022-10-13T20:21:06.822Z,101322.75
2022-10-13T20:23:34.505Z,101319.53
2022-10-13T20:26:09.406Z,101312.16
2022-10-13T20:28:42.736Z,101321.06
2022-10-13T20:31:11.573Z,101333.25
2022-10-13T20:33:37.951Z,101317.38
2022-10-13T20:36:07.560Z,101320.06
2022-10-13T20:38:37.611Z,101329.53
2022-10-13T20:41:17.793Z,101317.94
2022-10-13T20:43:44.545Z,101328.56
2022-10-13T20:46:11.774Z,101326.97
2022-10-13T20:49:05.543Z,101310.47
2022-10-13T20:51:26.967Z,101327.78
2022-10-13T20:53:54.209Z,101315.66
2022-10-13T20:56:23.187Z,101326.59
2022-10-13T20:58:50.164Z,101335.16
2022-10-13T21:01:17.781Z,101317.69
2022-10-13T21:03:44.763Z,101314.63
2022-10-13T21:06:13.351Z,101322.91
2022-10-13T21:08:40.407Z,101330.28
2022-10-13T21:11:12.876Z,101334.47
2022-10-13T21:13:41.011Z,101328.44
2022-10-13T21:16:13.359Z,101313.94
2022-10-13T21:18:39.737Z,101326.91
2022-10-13T21:21:11.776Z,101326.75
2022-10-13T21:23:38.422Z,101330.44
2022-10-13T21:26:07.437Z,101335.81
2022-10-13T21:28:37.023Z,101312.25
2022-10-13T21:31:06.742Z,101319.31
2022-10-13T21:33:35.722Z,101318.16
2022-10-13T21:36:15.752Z,101325.22
2022-10-13T21:38:43.720Z,101320.16
2022-10-13T21:41:12.201Z,101325.38
2022-10-13T21:43:38.866Z,101315.25
2022-10-13T21:46:08.886Z,101322.84
2022-10-13T21:48:35.738Z,101325.38
2022-10-13T21:51:21.427Z,101325.38
2022-10-13T21:53:53.474Z,101317.09
2022-10-13T21:56:21.348Z,101324.69
2022-10-13T21:58:48.972Z,101323.16
2022-10-13T22:01:16.829Z,101305.50
2022-10-13T22:03:43.699Z,101325.31
2022-10-13T22:06:18.469Z,101318.63
2022-10-13T22:08:46.574Z,101315.59
2022-10-13T22:11:13.774Z,101321.31
2022-10-13T22:13:40.425Z,101317.78
2022-10-13T22:16:08.361Z,101309.88
2022-10-13T22:18:34.873Z,101316.94
2022-10-13T22:21:03.385Z,101308.19
2022-10-13T22:23:30.119Z,101318.94
2022-10-13T22:25:56.587Z,101312.56
2022-10-13T22:28:23.990Z,101314.41
2022-10-13T22:30:51.741Z,101300.78
2022-10-13T22:33:21.047Z,101313.75
2022-10-13T22:35:47.717Z,101310.88
2022-10-13T22:38:14.281Z,101308.38
2022-10-13T22:40:41.658Z,101317.09
2022-10-13T22:43:08.459Z,101292.88
2022-10-13T22:45:34.904Z,101314.56
2022-10-13T22:48:02.145Z,101296.41
2022-10-13T22:50:28.902Z,101307.53
2022-10-13T22:52:55.328Z,101305.16
2022-10-13T22:55:21.889Z,101308.03
2022-10-13T22:57:48.282Z,101303.50
2022-10-13T23:00:15.213Z,101304.34
2022-10-13T23:02:41.575Z,101299.28
2022-10-13T23:05:08.397Z,101288.88
2022-10-13T23:07:34.847Z,101292.25
2022-10-13T23:10:01.298Z,101299.13
2022-10-13T23:12:27.687Z,101295.44
2022-10-13T23:14:54.202Z,101287.03
2022-10-13T23:17:20.889Z,101293.75
2022-10-13T23:19:47.627Z,101294.94
2022-10-13T23:22:14.073Z,101291.91
2022-10-13T23:24:40.674Z,101279.97
2022-10-13T23:27:07.202Z,101284.34
2022-10-13T23:29:33.874Z,101289.38
2022-10-13T23:32:00.302Z,101287.69
2022-10-13T23:34:29.267Z,101283.34
2022-10-13T23:36:55.853Z,101266.00
2022-10-13T23:39:22.311Z,101279.63
2022-10-13T23:41:49.093Z,101292.06
2022-10-13T23:44:15.451Z,101286.88
2022-10-13T23:46:41.899Z,101277.97
2022-10-13T23:49:11.660Z,101277.78
2022-10-13T23:51:38.005Z,101271.75
2022-10-13T23:54:04.369Z,101273.22
2022-10-13T23:56:30.763Z,101266.53
2022-10-13T23:58:57.256Z,101261.63
